MDSD METAR and TAF | Updated Today

MDSD METAR

Las Américas International Airport

Observation time: 60 min. ago

MDSD 070800Z 00000KT 9999 FEW016 22/21 Q1017

Need help? Read our tutorial on how to read METARs or read the parsed version below.

Las Américas International Airport (MDSD) METAR

  • Weather conditions on Tue, 07 Dec 2021 08:00:00 +0000 (60 min. ago):
  • Present conditions: Dry
  • Clouds: A few at 488 meters
  • Visibility: Greater than 10 km
  • Wind: Calm
  • Temperature: 22 celsius
  • Dew point: 21 celsius
  • Pressure: 1017 millibars
  • Remarks: None


Useful to know...

MDSD TAF

Las Américas International Airport

TAF MDSD 070400Z 0706/0806 04008KT 9999 SCT018
Observation time: 5:00 hr. ago
Need help? Read our tutorial on how to read TAFs or read the parsed version below.

Parsed version of TAF for Las Américas International Airport (MDSD)

  • From 07 December at 06:00 UTC, to day 08 of the month at 06:00 UTC
  • Clouds: Scattered at 549 meters
  • Visibility: Greater than 10 km
  • Wind: 40 degrees at 8